Vrsac, Serbia

7:18 PM CEST on July 26, 2014 (GMT +0200)
Vrsac (LYVR) Elev 279 ft | 45.15 °N, 21.31 °E | Change Station

Current weather conditions updated 18 minutes ago

Partly Cloudy
Partly Cloudy
82 °F
Feels Like 86 °F
N
6
Wind Variable Wind from ENE

Tomorrow is forecast to be Cooler than today. Afternoon thunderstorms.

Today
High -- | Low -- °F
--% Chance of Precip.
Yesterday
High -- | Low -- °F
Precip. -- in
5:12 AM 8:09 PM
Waning Crescent, 0% visible
Pressure 29.86 in
Visibility 6.2 miles
Clouds Few 3600 ft
Heat Index 86 °F
Dew Point 70 °F
Humidity 66%
Rainfall 0.00 in
Snow Depth Not available.
UV 0 out of 12
Pollen Not available.
Air Quality Not available.
Flu Activity Not available.
METAR LYVR 261700Z 06005KT 9999 FEW036 28/21 Q1011 NOSIG

More Conditions Fewer Conditions

Pressure 29.86 in
Visibility 6.2 miles
Clouds Few 3600 ft
Heat Index 86 °F
Dew Point 70 °F
Humidity 66%
Rainfall 0.00 in
Snow Depth Not available.
UV 0 out of 12
Pollen Not available.
Air Quality Not available.
Flu Activity Not available.
METAR LYVR 261700Z 06005KT 9999 FEW036 28/21 Q1011 NOSIG

More Conditions Fewer Conditions

10-Day Weather Forecast

Almanac

Astronomy

Jul. 26, 2014 Rise Set
Actual Time 5:12 AM CEST 8:09 PM CEST
Civil Twilight 4:37 AM CEST 8:43 PM CEST
Nautical Twilight 3:53 AM CEST 9:27 PM CEST
Astronomical Twilight 3:00 AM CEST 10:20 PM CEST
Moon 4:51 AM CEST 7:28 PM CEST
Length of Visible Light 16h 05m
Length of Day
14h 56m
Tomorrow will be 2m 12s shorter.
Waning Crescent, 0% of the Moon is Illuminated
Today
Waning Crescent
Jul 26
New
Aug 3
First Quarter
Aug 10
Full
Aug 17
Last Quarter

Community

WunderPhotos

Upload Photos

1,737,638 photos uploaded!

Nearby

Snow Depth

Not available.

Earthquake Activity

City Distance Mag. Time & Date
No recent earthquake activity has been reported nearby.
Minimum magnitude displayed is 2.5.

Coastal Water Temperatures

Place Temperature
No Stations Reporting

Nearby Weather Stations

Station Location Temp. Heat Index Dew Point Humidity Wind Precip. Elev Updated Type
Vrsac 82.4 °F 86 °F 69 °F 65% ENE  at  6.0 mph 0.00 in / hr 295 ft 7:13 PM CEST Normal
Tormac 79.8 °F 83 °F 69 °F 70% SE  at  0.0 mph 0.00 in / hr 405 ft 8:03 PM EEST Normal

Show More Stations Show Fewer Stations